Fruit Cove, Florida
Current Conditions -  °F | °C
As of 6:03 PM on Tuesday 25 Nov 2014 (Local Time) from KNIP Reporting Station
Moderate Rain Moderate Rain  
Wind Chill: 66°   Ceiling: 500
Heat Index: 66°   Visibility: 4mi
Dew Point: 62°   Wind: 12mph
Humidity: 87%   Direction: 350°N
Pressure: 29.94"   Gusts: NA
Location:  30.0735°N, 81.5808°W
Report Text: KNIP 252303Z 35010KT 4SM RA BR BKN005 OVC011 19/17 A2994 RMK AO2 TSE02 T1 SET P0003 T01890167 $
Loading
Personal Weather Stations






























Interactive Weather Map New forecast layout! Learn more

10-Day Weather Forecast

Advertisements
Track Severe Weather on mobile